createdAt,value
2024-03-05T00:00:29.302Z,21.60
2024-03-05T00:01:32.478Z,20.90
2024-03-05T00:02:37.484Z,21.60
2024-03-05T00:03:40.121Z,18.50
2024-03-05T00:04:42.322Z,21.20
2024-03-05T00:05:44.308Z,23.10
2024-03-05T00:06:46.501Z,22.20
2024-03-05T00:07:49.236Z,17.50
2024-03-05T00:08:51.454Z,21.90
2024-03-05T00:09:53.501Z,22.50
2024-03-05T00:10:55.720Z,23.78
2024-03-05T00:11:58.285Z,20.40
2024-03-05T00:13:00.664Z,26.20
2024-03-05T00:14:04.088Z,22.60
2024-03-05T00:15:07.675Z,23.70
2024-03-05T00:16:09.995Z,25.00
2024-03-05T00:17:12.266Z,12.30
2024-03-05T00:18:14.414Z,23.90
2024-03-05T00:19:16.555Z,24.70
2024-03-05T00:20:18.864Z,21.00
2024-03-05T00:21:20.832Z,24.10
2024-03-05T00:22:23.081Z,29.70
2024-03-05T00:23:25.206Z,27.50
2024-03-05T00:24:27.450Z,26.60
2024-03-05T00:25:32.030Z,24.00
2024-03-05T00:26:34.524Z,24.09
2024-03-05T00:27:37.025Z,26.50
2024-03-05T00:28:39.156Z,26.70
2024-03-05T00:29:41.832Z,21.80
2024-03-05T00:30:44.331Z,24.30
2024-03-05T00:31:46.564Z,31.80
2024-03-05T00:32:48.614Z,26.40
2024-03-05T00:33:50.912Z,25.50
2024-03-05T00:34:53.461Z,23.20
2024-03-05T00:35:55.767Z,25.90
2024-03-05T00:36:58.181Z,22.90
2024-03-05T00:38:00.216Z,24.50
2024-03-05T00:39:02.886Z,23.60
2024-03-05T00:40:06.111Z,24.45
2024-03-05T00:41:08.735Z,21.80
2024-03-05T00:42:10.876Z,23.20
2024-03-05T00:43:13.186Z,24.67
2024-03-05T00:44:15.416Z,24.80
2024-03-05T00:45:17.908Z,22.60
2024-03-05T00:46:21.140Z,21.10
2024-03-05T00:47:24.342Z,21.64
2024-03-05T00:48:27.103Z,26.70
2024-03-05T00:49:29.263Z,28.80
2024-03-05T00:50:31.429Z,21.20
2024-03-05T00:51:33.510Z,28.22
2024-03-05T00:52:36.032Z,22.50
2024-03-05T00:53:38.214Z,24.30
2024-03-05T00:54:40.365Z,26.78
2024-03-05T00:55:42.623Z,27.00
2024-03-05T00:56:45.282Z,26.00
2024-03-05T00:57:47.493Z,24.20
2024-03-05T00:58:49.716Z,22.30
2024-03-05T00:59:52.338Z,23.90
2024-03-05T01:00:55.088Z,20.40
2024-03-05T01:01:57.404Z,23.40
2024-03-05T01:03:00.417Z,22.70
2024-03-05T01:04:02.653Z,20.73
2024-03-05T01:05:05.516Z,23.50
2024-03-05T01:06:07.993Z,20.60
2024-03-05T01:07:10.086Z,23.30
2024-03-05T01:08:12.149Z,24.50
2024-03-05T01:09:14.162Z,23.33
2024-03-05T01:10:16.554Z,27.70
2024-03-05T01:11:18.954Z,23.90
2024-03-05T01:12:21.106Z,24.20
2024-03-05T01:13:23.301Z,23.00
2024-03-05T01:14:25.586Z,25.10
2024-03-05T01:15:27.844Z,24.40
2024-03-05T01:16:30.262Z,23.30
2024-03-05T01:17:33.661Z,21.40
2024-03-05T01:18:35.695Z,25.20
2024-03-05T01:19:37.947Z,23.22
2024-03-05T01:20:40.717Z,25.20
2024-03-05T01:21:43.057Z,24.40
2024-03-05T01:22:46.312Z,23.80
2024-03-05T01:23:49.123Z,23.80
2024-03-05T01:24:51.233Z,28.00
2024-03-05T01:25:53.664Z,27.10
2024-03-05T01:26:56.010Z,21.50
2024-03-05T01:27:58.585Z,25.00
2024-03-05T01:29:00.819Z,25.00
2024-03-05T01:30:04.622Z,25.50
2024-03-05T01:31:08.188Z,25.20
2024-03-05T01:32:10.346Z,22.80
2024-03-05T01:33:12.649Z,25.10
2024-03-05T01:34:15.808Z,23.50
2024-03-05T01:35:18.136Z,23.50
2024-03-05T01:36:20.616Z,24.40
2024-03-05T01:37:23.247Z,24.70
2024-03-05T01:38:25.839Z,25.90
2024-03-05T01:39:28.764Z,26.90
2024-03-05T01:40:31.558Z,23.90
2024-03-05T01:41:34.193Z,25.60
2024-03-05T01:42:36.330Z,26.70
2024-03-05T01:43:38.600Z,26.70
2024-03-05T01:44:40.701Z,28.00
2024-03-05T01:45:42.982Z,25.60
2024-03-05T01:46:50.979Z,27.00
2024-03-05T01:47:53.499Z,28.10
2024-03-05T01:48:56.267Z,23.80
2024-03-05T01:50:02.029Z,26.91
2024-03-05T01:51:05.019Z,26.10
2024-03-05T01:52:07.485Z,20.82
2024-03-05T01:53:12.422Z,25.90
2024-03-05T01:54:16.576Z,27.80
2024-03-05T01:55:23.437Z,29.70
2024-03-05T01:56:26.044Z,27.20
2024-03-05T01:57:28.953Z,25.70
2024-03-05T01:58:31.809Z,23.36
2024-03-05T01:59:35.008Z,26.00
2024-03-05T02:00:37.510Z,25.40
2024-03-05T02:01:39.753Z,26.50
2024-03-05T02:02:45.282Z,26.50
2024-03-05T02:03:47.719Z,22.60
2024-03-05T02:04:52.778Z,23.00
2024-03-05T02:05:58.613Z,22.20
2024-03-05T02:07:02.087Z,28.00
2024-03-05T02:08:04.890Z,22.80
2024-03-05T02:09:07.241Z,23.60
2024-03-05T02:10:10.629Z,23.70
2024-03-05T02:11:13.622Z,27.00
2024-03-05T02:12:16.493Z,25.70
2024-03-05T02:13:18.843Z,25.20
2024-03-05T02:14:21.405Z,27.80
2024-03-05T02:15:23.614Z,12.40
2024-03-05T02:16:26.348Z,20.20
2024-03-05T02:17:28.971Z,27.70
2024-03-05T02:18:30.973Z,24.80
2024-03-05T02:19:33.069Z,23.89
2024-03-05T02:20:35.720Z,25.70
2024-03-05T02:21:37.858Z,27.70
2024-03-05T02:22:41.046Z,22.50
2024-03-05T02:23:43.054Z,29.70
2024-03-05T02:24:45.444Z,25.33
2024-03-05T02:25:47.978Z,22.10
2024-03-05T02:26:50.829Z,20.90
2024-03-05T02:27:53.205Z,25.20
2024-03-05T02:28:57.729Z,22.60
2024-03-05T02:30:00.882Z,23.90
2024-03-05T02:31:03.430Z,25.20
2024-03-05T02:32:07.971Z,24.50
2024-03-05T02:33:11.111Z,29.60
2024-03-05T02:34:14.360Z,25.80
2024-03-05T02:35:17.092Z,20.70
2024-03-05T02:36:19.326Z,24.20
2024-03-05T02:37:22.014Z,25.50
2024-03-05T02:38:24.619Z,26.50
2024-03-05T02:39:27.300Z,24.30
2024-03-05T02:40:30.053Z,27.60
2024-03-05T02:41:32.214Z,28.90
2024-03-05T02:42:37.160Z,24.80
2024-03-05T02:43:39.504Z,23.40
2024-03-05T02:44:41.694Z,23.10
2024-03-05T02:45:44.000Z,25.20
2024-03-05T02:46:46.210Z,25.40
2024-03-05T02:47:48.594Z,30.30
2024-03-05T02:48:50.766Z,27.90
2024-03-05T02:49:53.122Z,27.80
2024-03-05T02:50:55.418Z,24.10
2024-03-05T02:51:57.813Z,19.50
2024-03-05T02:52:59.927Z,23.90
2024-03-05T02:54:01.994Z,25.00
2024-03-05T02:55:05.330Z,27.78
2024-03-05T02:56:09.079Z,24.60
2024-03-05T02:57:11.915Z,18.60
2024-03-05T02:58:13.924Z,28.80
2024-03-05T02:59:17.667Z,29.80
2024-03-05T03:00:20.653Z,23.45
2024-03-05T03:01:26.382Z,25.90
2024-03-05T08:53:47.249Z,33.60
2024-03-05T08:54:49.363Z,32.60
2024-03-05T08:55:51.403Z,35.11
2024-03-05T08:56:54.801Z,35.00
2024-03-05T08:57:56.945Z,36.50
2024-03-05T08:59:00.447Z,34.50
2024-03-05T09:00:13.851Z,33.20
2024-03-05T09:01:08.637Z,32.70
2024-03-05T09:02:11.133Z,34.70
2024-03-05T09:03:13.966Z,36.50
2024-03-05T09:04:16.767Z,33.20
2024-03-05T09:05:19.179Z,32.10
2024-03-05T09:06:21.377Z,32.20
2024-03-05T09:07:24.346Z,33.56
2024-03-05T09:08:26.856Z,30.60
2024-03-05T09:09:29.031Z,34.60
2024-03-05T09:10:31.474Z,30.90
2024-03-05T09:11:33.638Z,33.30
2024-03-05T09:12:36.306Z,31.40
2024-03-05T09:13:42.968Z,28.30
2024-03-05T09:14:45.483Z,32.20
2024-03-05T09:15:47.586Z,31.40
2024-03-05T09:16:49.970Z,32.20
2024-03-05T09:17:52.431Z,34.40
2024-03-05T09:18:54.671Z,31.60
2024-03-05T09:19:57.054Z,34.60
2024-03-05T09:20:59.291Z,29.80
2024-03-05T09:22:01.217Z,15.67
2024-03-05T09:23:03.882Z,30.11
2024-03-05T09:24:06.677Z,31.60
2024-03-05T09:25:09.570Z,31.50
2024-03-05T09:26:12.341Z,30.60
2024-03-05T09:27:14.886Z,28.20
2024-03-05T09:28:17.344Z,30.90
2024-03-05T09:29:20.601Z,33.70
2024-03-05T09:30:23.406Z,32.00
2024-03-05T09:31:25.697Z,34.70
2024-03-05T09:32:28.375Z,32.70
2024-03-05T09:33:31.713Z,34.30
2024-03-05T09:34:34.628Z,32.50
2024-03-05T09:35:36.738Z,29.90
2024-03-05T09:36:39.463Z,32.70
2024-03-05T09:37:43.176Z,32.40
2024-03-05T09:38:45.573Z,33.90
2024-03-05T09:39:48.369Z,33.30
2024-03-05T09:40:51.730Z,31.36
2024-03-05T09:41:53.995Z,31.50
2024-03-05T09:42:59.915Z,34.50
2024-03-05T09:44:02.181Z,28.70
2024-03-05T09:45:05.869Z,32.40
2024-03-05T09:46:09.376Z,34.30
2024-03-05T09:47:13.747Z,32.80
2024-03-05T09:48:18.622Z,25.90
2024-03-05T09:49:23.387Z,35.30
2024-03-05T09:50:26.180Z,32.80
2024-03-05T09:51:30.038Z,31.80
2024-03-05T09:52:32.838Z,34.10
2024-03-05T09:53:35.584Z,32.00
2024-03-05T09:54:38.426Z,31.30
2024-03-05T09:55:41.493Z,37.91
2024-03-05T09:56:45.696Z,33.90
2024-03-05T09:57:49.151Z,36.70
2024-03-05T09:58:52.190Z,35.20
2024-03-05T09:59:55.450Z,37.30
2024-03-05T10:01:00.728Z,37.30
2024-03-05T10:02:03.357Z,36.70
2024-03-05T10:03:07.264Z,32.10
2024-03-05T10:04:15.268Z,34.40
2024-03-05T10:05:18.603Z,33.90
2024-03-05T10:06:20.995Z,37.40
2024-03-05T10:07:27.513Z,35.30
2024-03-05T10:08:30.348Z,35.90
2024-03-05T10:09:32.502Z,42.60
2024-03-05T10:10:34.987Z,31.80
2024-03-05T10:11:38.186Z,35.40
2024-03-05T10:12:41.230Z,26.30
2024-03-05T10:13:43.697Z,34.91
2024-03-05T10:14:46.329Z,39.70
2024-03-05T10:15:48.662Z,36.70
2024-03-05T10:16:54.847Z,33.40
2024-03-05T10:17:57.217Z,38.60
2024-03-05T10:18:59.549Z,35.80
2024-03-05T10:20:01.976Z,36.50
2024-03-05T10:21:22.606Z,38.20
2024-03-05T10:22:24.800Z,39.70
2024-03-05T10:23:29.199Z,35.60
2024-03-05T10:24:31.569Z,38.80
2024-03-05T10:25:37.032Z,32.10
2024-03-05T10:26:40.134Z,38.90
2024-03-05T10:27:50.099Z,37.80
2024-03-05T10:28:52.864Z,33.30
2024-03-05T10:29:55.234Z,37.60
2024-03-05T10:31:00.898Z,37.90
2024-03-05T10:32:06.748Z,33.00
2024-03-05T10:33:10.370Z,43.70
2024-03-05T10:34:14.775Z,39.60
2024-03-05T10:35:16.966Z,36.80
2024-03-05T10:37:36.931Z,38.50
2024-03-05T10:38:39.997Z,40.20
2024-03-05T10:39:42.953Z,36.80
2024-03-05T10:40:47.275Z,2.18
2024-03-05T10:41:54.152Z,36.80
2024-03-05T10:42:58.699Z,41.70
2024-03-05T10:44:02.256Z,35.10
2024-03-05T10:45:07.801Z,37.90
2024-03-05T10:46:11.628Z,37.00
2024-03-05T10:47:14.352Z,37.70
2024-03-05T10:48:18.068Z,38.50
2024-03-05T10:49:22.215Z,38.70
2024-03-05T10:50:29.858Z,39.10
2024-03-05T10:51:40.309Z,38.60
2024-03-05T10:52:44.065Z,40.10
2024-03-05T10:53:49.493Z,23.30
2024-03-05T10:54:55.421Z,39.10
2024-03-05T10:55:58.263Z,43.40
2024-03-05T10:57:01.441Z,43.10
2024-03-05T10:58:05.364Z,40.10
2024-03-05T10:59:08.141Z,39.50
2024-03-05T11:00:12.910Z,35.00
2024-03-05T11:01:23.220Z,37.80
2024-03-05T11:02:26.137Z,39.50
2024-03-05T11:03:40.106Z,43.70
2024-03-05T11:04:42.818Z,37.30
2024-03-05T11:05:51.492Z,40.60
2024-03-05T11:08:18.166Z,44.00
2024-03-05T11:09:23.048Z,38.50
2024-03-05T11:10:27.497Z,38.50
2024-03-05T11:11:30.569Z,38.60
2024-03-05T11:12:33.789Z,36.64
2024-03-05T11:13:36.857Z,40.00
2024-03-05T11:14:40.471Z,36.80
2024-03-05T11:15:43.923Z,34.50
2024-03-05T11:17:07.881Z,35.70
2024-03-05T11:18:33.446Z,35.90
2024-03-05T11:20:53.436Z,37.60
2024-03-05T11:21:56.013Z,34.50
2024-03-05T11:22:58.234Z,33.50
2024-03-05T11:24:02.926Z,39.00
2024-03-05T11:25:06.588Z,34.40
2024-03-05T11:26:20.580Z,33.60
2024-03-05T11:27:24.370Z,33.80
2024-03-05T11:28:27.973Z,37.30
2024-03-05T11:29:33.719Z,34.90
2024-03-05T11:30:36.040Z,33.90
2024-03-05T11:31:38.186Z,34.80
2024-03-05T11:32:40.590Z,33.22
2024-03-05T11:33:46.928Z,39.00
2024-03-05T11:34:52.918Z,32.60
2024-03-05T11:35:57.541Z,37.30
2024-03-05T11:37:11.218Z,36.70
2024-03-05T11:38:17.924Z,35.20
2024-03-05T11:39:20.636Z,31.60
2024-03-05T11:40:32.071Z,31.10
2024-03-05T11:41:40.605Z,27.80
2024-03-05T11:42:46.616Z,27.50
2024-03-05T11:43:49.457Z,19.50
2024-03-05T11:44:54.720Z,28.82
2024-03-05T11:45:57.437Z,28.80
2024-03-05T11:46:59.696Z,28.00
2024-03-05T11:48:04.117Z,26.50
2024-03-05T11:49:07.724Z,23.60
2024-03-05T11:50:10.880Z,24.90
2024-03-05T11:51:13.590Z,24.70
2024-03-05T11:52:18.031Z,23.60
2024-03-05T11:53:20.317Z,24.70
2024-03-05T11:54:25.028Z,24.00
2024-03-05T11:55:28.176Z,24.00
2024-03-05T11:56:31.796Z,28.36
2024-03-05T11:57:34.110Z,25.50
2024-03-05T11:58:36.690Z,23.70
2024-03-05T11:59:40.859Z,26.60
2024-03-05T12:01:45.260Z,24.10
2024-03-05T12:04:07.363Z,25.20
2024-03-05T12:05:12.467Z,22.40
2024-03-05T12:06:18.604Z,24.20
2024-03-05T12:07:21.539Z,25.00
2024-03-05T12:08:24.405Z,26.55
2024-03-05T12:09:26.565Z,23.40
2024-03-05T12:10:30.576Z,28.70
2024-03-05T12:11:32.984Z,23.00
2024-03-05T12:12:35.509Z,24.50
2024-03-05T12:13:38.247Z,21.40
2024-03-05T12:14:52.458Z,22.60
2024-03-05T12:15:54.856Z,25.20
2024-03-05T12:16:59.314Z,26.80
2024-03-05T12:18:09.056Z,23.60
2024-03-05T12:19:11.334Z,23.90
2024-03-05T12:20:20.828Z,25.40
2024-03-05T12:21:26.988Z,24.30
2024-03-05T12:22:27.411Z,22.60
2024-03-05T12:23:41.287Z,24.20
2024-03-05T12:24:33.764Z,25.90
2024-03-05T12:25:36.784Z,21.00
2024-03-05T12:26:39.307Z,25.30
2024-03-05T12:27:46.819Z,24.10
2024-03-05T12:28:49.975Z,28.70
2024-03-05T12:29:52.534Z,28.30
2024-03-05T12:30:55.884Z,24.20
2024-03-05T12:32:00.210Z,26.30
2024-03-05T12:33:02.593Z,22.70
2024-03-05T12:34:04.783Z,27.33
2024-03-05T12:35:07.783Z,23.90
2024-03-05T12:36:10.584Z,24.40
2024-03-05T12:37:13.254Z,21.90
2024-03-05T12:38:15.809Z,22.60
2024-03-05T12:39:18.870Z,22.70
2024-03-05T12:40:22.911Z,26.40
2024-03-05T12:41:26.189Z,21.50
2024-03-05T12:42:28.853Z,24.80
2024-03-05T12:43:31.644Z,29.80
2024-03-05T12:44:34.898Z,29.90
2024-03-05T12:45:38.022Z,24.80
2024-03-05T12:46:40.394Z,28.45
2024-03-05T12:47:55.430Z,27.80
2024-03-05T12:48:59.555Z,23.40
2024-03-05T12:50:04.923Z,25.70
2024-03-05T12:51:11.250Z,25.80
2024-03-05T12:52:19.773Z,27.00
2024-03-05T12:53:23.821Z,26.80
2024-03-05T12:54:26.642Z,23.40
2024-03-05T12:55:31.984Z,23.50
2024-03-05T12:56:44.524Z,28.00
2024-03-05T12:57:49.561Z,24.80
2024-03-05T12:58:53.867Z,22.90
2024-03-05T13:00:04.815Z,24.10
2024-03-05T13:01:08.503Z,25.10
2024-03-05T13:02:13.152Z,26.30
2024-03-05T13:03:18.000Z,28.20
2024-03-05T13:04:22.577Z,29.70
2024-03-05T13:05:26.632Z,25.00
2024-03-05T13:06:32.263Z,22.00
2024-03-05T13:07:35.898Z,26.90
2024-03-05T13:08:38.602Z,27.20
2024-03-05T13:09:40.833Z,24.40
2024-03-05T13:10:43.432Z,22.00
2024-03-05T13:11:47.146Z,27.40
2024-03-05T13:12:49.508Z,27.80
2024-03-05T13:13:51.570Z,27.00
2024-03-05T13:14:53.873Z,25.56
2024-03-05T13:15:56.153Z,24.20
2024-03-05T13:16:59.840Z,25.90
2024-03-05T13:18:02.575Z,28.50
2024-03-05T13:19:05.402Z,27.50
2024-03-05T13:20:08.624Z,28.45
2024-03-05T13:21:10.810Z,29.90
2024-03-05T13:22:14.350Z,28.10
2024-03-05T13:23:18.982Z,27.11
2024-03-05T13:24:21.780Z,26.20
2024-03-05T13:25:26.155Z,29.60
2024-03-05T13:26:28.861Z,27.70
2024-03-05T13:27:31.370Z,29.40
2024-03-05T13:28:33.627Z,27.30
2024-03-05T13:29:35.934Z,29.50
2024-03-05T13:30:38.133Z,30.50
2024-03-05T13:31:44.144Z,27.11
2024-03-05T13:32:48.741Z,30.40
2024-03-05T13:33:51.420Z,28.18
2024-03-05T13:34:53.503Z,28.80
2024-03-05T13:35:56.071Z,27.50
2024-03-05T13:36:58.749Z,29.50
2024-03-05T13:38:01.757Z,26.10
2024-03-05T13:39:05.926Z,28.36
2024-03-05T13:40:10.116Z,27.00
2024-03-05T13:41:12.951Z,28.40
2024-03-05T13:42:17.561Z,35.10
2024-03-05T13:43:19.701Z,24.44
2024-03-05T13:44:22.160Z,28.80
2024-03-05T13:45:24.044Z,25.90
2024-03-05T13:46:26.348Z,28.78
2024-03-05T13:47:31.513Z,25.50
2024-03-05T13:48:32.752Z,27.50
2024-03-05T13:49:35.146Z,26.00
2024-03-05T13:50:37.554Z,25.60
2024-03-05T13:51:40.272Z,25.10
2024-03-05T13:52:44.358Z,23.10
2024-03-05T13:53:46.553Z,24.10
2024-03-05T13:54:49.609Z,22.40
2024-03-05T13:57:02.386Z,26.50
2024-03-05T13:58:04.590Z,24.50
2024-03-05T13:59:06.959Z,25.40
2024-03-05T14:00:11.765Z,27.45
2024-03-05T14:01:16.751Z,24.80
2024-03-05T14:02:19.166Z,20.20
2024-03-05T14:03:21.828Z,16.50
2024-03-05T14:04:24.976Z,25.70
2024-03-05T14:05:27.007Z,27.50
2024-03-05T14:06:29.287Z,28.40
2024-03-05T14:07:33.722Z,33.00
2024-03-05T14:08:36.020Z,29.40
2024-03-05T14:09:38.372Z,29.70
2024-03-05T14:10:41.664Z,29.00
2024-03-05T14:11:43.788Z,27.27
2024-03-05T14:12:46.470Z,29.40
2024-03-05T14:13:49.237Z,28.00
2024-03-05T14:14:51.523Z,27.70
2024-03-05T14:15:54.180Z,26.70
2024-03-05T14:16:57.046Z,24.50
2024-03-05T14:18:01.537Z,28.73
2024-03-05T14:19:03.792Z,29.50
2024-03-05T14:20:08.125Z,26.40
2024-03-05T14:21:10.581Z,26.80
2024-03-05T14:22:13.757Z,27.00
2024-03-05T14:23:15.953Z,28.60
2024-03-05T14:24:18.609Z,34.20
2024-03-05T14:25:23.166Z,36.80
2024-03-05T14:26:26.038Z,30.60
2024-03-05T14:27:28.109Z,27.30
2024-03-05T14:28:31.010Z,27.00
2024-03-05T14:29:34.232Z,29.45
2024-03-05T14:30:36.409Z,28.00
2024-03-05T14:31:39.770Z,33.30
2024-03-05T14:32:43.037Z,31.40
2024-03-05T14:33:46.066Z,25.30
2024-03-05T14:34:49.462Z,28.80
2024-03-05T14:35:52.117Z,26.40
2024-03-05T14:36:54.707Z,25.50
2024-03-05T14:37:58.041Z,21.80
2024-03-05T14:39:00.441Z,24.10
2024-03-05T14:40:02.891Z,28.90
2024-03-05T14:41:05.703Z,22.60
2024-03-05T14:42:09.294Z,26.60
2024-03-05T14:43:11.925Z,27.40
2024-03-05T14:44:14.028Z,25.78
2024-03-05T14:45:17.313Z,24.78
2024-03-05T14:46:20.488Z,30.00
2024-03-05T14:47:22.642Z,24.91
2024-03-05T14:48:25.769Z,29.70
2024-03-05T14:49:27.938Z,31.20
2024-03-05T14:50:30.211Z,29.40
2024-03-05T14:51:32.881Z,25.10
2024-03-05T14:52:35.328Z,25.90
2024-03-05T14:53:37.627Z,28.10
2024-03-05T14:54:39.772Z,23.20
2024-03-05T14:55:41.939Z,31.20
2024-03-05T14:56:44.586Z,28.00
2024-03-05T14:57:46.802Z,28.50
2024-03-05T14:58:49.014Z,31.00
2024-03-05T14:59:51.656Z,31.70
2024-03-05T15:00:53.931Z,33.30
2024-03-05T15:01:56.442Z,35.00
2024-03-05T15:02:59.384Z,33.60
2024-03-05T15:04:01.741Z,32.80
2024-03-05T15:05:04.850Z,29.00
2024-03-05T15:06:07.672Z,36.10
2024-03-05T15:07:09.939Z,30.00
2024-03-05T15:08:12.217Z,33.70
2024-03-05T15:09:15.028Z,33.40
2024-03-05T15:10:17.737Z,34.30
2024-03-05T15:11:20.355Z,33.90
2024-03-05T15:12:23.017Z,30.30
2024-03-05T15:13:25.241Z,32.60
2024-03-05T15:14:27.368Z,31.10
2024-03-05T15:15:29.966Z,33.78
2024-03-05T15:16:32.713Z,31.45
2024-03-05T15:17:36.265Z,28.70
2024-03-05T15:18:38.572Z,30.50
2024-03-05T15:19:40.740Z,32.00
2024-03-05T15:20:43.389Z,8.50
2024-03-05T15:21:46.684Z,28.30
2024-03-05T15:22:49.385Z,23.40
2024-03-05T15:23:52.089Z,27.50
2024-03-05T15:24:54.277Z,19.80
2024-03-05T15:25:56.585Z,26.70
2024-03-05T15:27:05.292Z,26.10
2024-03-05T15:28:05.276Z,27.90
2024-03-05T15:29:07.791Z,23.60
2024-03-05T15:30:12.295Z,22.00
2024-03-05T15:31:15.160Z,23.20
2024-03-05T15:32:17.355Z,26.50
2024-03-05T15:33:19.464Z,27.30
2024-03-05T15:34:21.638Z,16.40
2024-03-05T15:35:24.115Z,27.33
2024-03-05T15:36:26.730Z,25.27
2024-03-05T15:37:29.409Z,23.80
2024-03-05T15:38:32.447Z,25.50
2024-03-05T15:39:35.016Z,23.09
2024-03-05T15:40:37.764Z,24.50
2024-03-05T15:41:40.073Z,25.50
2024-03-05T15:42:57.365Z,28.40
2024-03-05T15:43:59.768Z,26.50
2024-03-05T15:45:02.500Z,16.80
2024-03-05T15:46:05.517Z,25.10
2024-03-05T15:47:08.295Z,24.36
2024-03-05T15:48:10.485Z,21.80
2024-03-05T15:49:13.581Z,28.20
2024-03-05T15:50:18.482Z,26.70
2024-03-05T15:51:20.577Z,26.40
2024-03-05T15:52:22.685Z,27.09
2024-03-05T15:53:26.210Z,28.40
2024-03-05T15:54:28.357Z,29.00
2024-03-05T15:55:31.765Z,27.82
2024-03-05T15:56:34.179Z,23.00
2024-03-05T15:57:37.573Z,28.00
2024-03-05T15:58:41.079Z,28.00
2024-03-05T15:59:46.932Z,29.50
2024-03-05T16:00:49.330Z,25.80
2024-03-05T16:01:51.913Z,27.60
2024-03-05T16:04:43.113Z,25.70
2024-03-05T16:05:33.461Z,29.30
2024-03-05T16:06:34.680Z,29.70
2024-03-05T16:07:36.922Z,26.00
2024-03-05T16:08:40.125Z,25.70
2024-03-05T16:09:42.226Z,30.50
2024-03-05T16:10:48.555Z,27.90
2024-03-05T16:11:48.614Z,27.30
2024-03-05T16:12:52.600Z,27.18
2024-03-05T16:13:55.076Z,27.00
2024-03-05T16:14:57.893Z,25.10
2024-03-05T16:16:00.231Z,27.40
2024-03-05T16:17:02.568Z,31.80
2024-03-05T16:18:05.708Z,30.40
2024-03-05T16:19:08.118Z,26.73
2024-03-05T16:20:10.738Z,27.80
2024-03-05T16:21:13.373Z,28.70
2024-03-05T16:22:16.032Z,29.80
2024-03-05T16:23:18.477Z,32.20
2024-03-05T16:24:20.516Z,29.30
2024-03-05T16:25:27.659Z,32.90
2024-03-05T16:26:31.970Z,31.90
2024-03-05T16:27:35.544Z,29.50
2024-03-05T16:28:38.411Z,35.90
2024-03-05T16:29:40.674Z,28.73
2024-03-05T16:30:43.670Z,32.90
2024-03-05T16:31:45.891Z,29.82
2024-03-05T16:32:48.328Z,31.10
2024-03-05T16:33:50.990Z,23.50
2024-03-05T16:34:53.107Z,28.30
2024-03-05T16:35:55.256Z,28.33
2024-03-05T16:36:57.483Z,28.00
2024-03-05T16:38:01.261Z,27.50
2024-03-05T16:39:04.153Z,28.90
2024-03-05T16:40:09.537Z,28.40
2024-03-05T16:41:11.823Z,28.80
2024-03-05T16:42:14.579Z,30.10
2024-03-05T16:43:18.258Z,35.00
2024-03-05T16:44:20.909Z,32.20
2024-03-05T16:45:24.483Z,33.20
2024-03-05T16:46:26.904Z,36.20
2024-03-05T16:47:29.538Z,39.40
2024-03-05T16:48:31.671Z,37.90
2024-03-05T16:49:34.288Z,34.33
2024-03-05T16:50:37.691Z,35.45
2024-03-05T16:51:40.156Z,35.80
2024-03-05T16:52:47.283Z,35.00
2024-03-05T16:53:49.934Z,30.70
2024-03-05T16:54:51.990Z,28.50
2024-03-05T16:55:54.619Z,32.00
2024-03-05T16:56:57.248Z,29.50
2024-03-05T16:57:59.464Z,26.80
2024-03-05T16:59:02.334Z,31.70
2024-03-05T17:01:16.772Z,31.90
2024-03-05T17:02:19.180Z,30.10
2024-03-05T17:03:22.035Z,28.00
2024-03-05T17:04:24.316Z,26.82
2024-03-05T17:05:28.824Z,24.00
2024-03-05T17:06:31.824Z,27.10
2024-03-05T17:07:34.491Z,26.91
2024-03-05T17:08:37.118Z,30.10
2024-03-05T17:09:39.775Z,27.30
2024-03-05T17:10:42.710Z,28.20
2024-03-05T17:11:44.816Z,26.50
2024-03-05T17:12:48.313Z,27.30
2024-03-05T17:13:51.054Z,24.50
2024-03-05T17:14:53.371Z,25.20
2024-03-05T17:15:56.519Z,32.60
2024-03-05T17:16:59.099Z,29.60
2024-03-05T17:18:04.868Z,28.50
2024-03-05T17:19:06.980Z,30.40
2024-03-05T17:20:10.789Z,30.10
2024-03-05T17:21:13.061Z,28.40
2024-03-05T17:22:15.735Z,25.00
2024-03-05T17:23:22.243Z,29.90
2024-03-05T17:24:23.933Z,26.70
2024-03-05T17:25:28.551Z,29.90
2024-03-05T17:26:31.702Z,27.80
2024-03-05T17:27:34.135Z,28.45
2024-03-05T17:28:36.560Z,29.30
2024-03-05T17:29:40.450Z,29.00
2024-03-05T17:30:42.771Z,27.60
2024-03-05T17:31:46.818Z,28.30
2024-03-05T17:32:49.782Z,27.70
2024-03-05T17:33:51.929Z,33.82
2024-03-05T17:34:54.939Z,24.67
2024-03-05T17:35:59.027Z,31.36
2024-03-05T17:37:02.536Z,29.10
2024-03-05T17:38:05.284Z,26.40
2024-03-05T17:39:07.577Z,28.60
2024-03-05T17:40:11.784Z,27.70
2024-03-05T17:41:14.150Z,29.30
2024-03-05T17:42:16.688Z,32.36
2024-03-05T17:43:19.990Z,28.50
2024-03-05T17:44:22.721Z,28.90
2024-03-05T17:45:25.108Z,29.00
2024-03-05T17:46:28.520Z,25.70
2024-03-05T17:48:45.657Z,34.90
2024-03-05T17:49:48.102Z,24.10
2024-03-05T17:50:50.986Z,29.70
2024-03-05T17:51:53.765Z,25.90
2024-03-05T17:52:56.389Z,32.50
2024-03-05T17:53:59.054Z,32.00
2024-03-05T17:55:01.911Z,29.20
2024-03-05T17:56:05.033Z,32.00
2024-03-05T17:57:08.299Z,36.30
2024-03-05T17:58:11.745Z,36.80
2024-03-05T17:59:14.317Z,40.40
2024-03-05T18:00:19.449Z,35.80
2024-03-05T18:01:22.378Z,36.10
2024-03-05T18:02:24.797Z,31.30
2024-03-05T18:03:27.384Z,32.50
2024-03-05T18:04:29.606Z,36.10
2024-03-05T18:05:32.243Z,39.60
2024-03-05T18:06:35.538Z,38.30
2024-03-05T18:07:38.791Z,35.40
2024-03-05T18:08:40.911Z,33.00
2024-03-05T18:09:43.065Z,35.00
2024-03-05T18:10:46.570Z,34.70
2024-03-05T18:11:52.299Z,32.50
2024-03-05T18:12:55.241Z,30.50
2024-03-05T18:13:58.447Z,30.00
2024-03-05T18:15:01.224Z,29.10
2024-03-05T18:16:04.770Z,28.20
2024-03-05T18:17:08.964Z,29.40
2024-03-05T18:18:11.269Z,28.30
2024-03-05T18:19:14.306Z,25.44
2024-03-05T18:20:20.088Z,40.70
2024-03-05T18:21:22.717Z,28.10
2024-03-05T18:22:26.024Z,27.45
2024-03-05T18:23:29.452Z,31.00
2024-03-05T18:24:32.120Z,30.80
2024-03-05T18:25:37.361Z,31.80
2024-03-05T18:26:40.750Z,29.90
2024-03-05T18:27:54.968Z,30.60
2024-03-05T18:28:57.327Z,28.30
2024-03-05T18:29:59.469Z,25.50
2024-03-05T18:31:02.692Z,23.80
2024-03-05T18:32:05.169Z,31.80
2024-03-05T18:33:09.673Z,27.80
2024-03-05T18:34:12.472Z,31.00
2024-03-05T18:35:15.498Z,26.70
2024-03-05T18:36:18.580Z,27.20
2024-03-05T18:37:20.912Z,31.80
2024-03-05T18:38:29.014Z,30.90
2024-03-05T18:39:28.343Z,28.60
2024-03-05T18:40:31.524Z,27.70
2024-03-05T18:41:34.059Z,28.82
2024-03-05T18:42:36.185Z,28.70
2024-03-05T18:43:38.325Z,21.67
2024-03-05T18:44:40.524Z,27.22
2024-03-05T18:45:45.020Z,27.30
2024-03-05T18:46:47.315Z,29.10
2024-03-05T18:47:59.199Z,33.78
2024-03-05T18:48:55.431Z,30.10
2024-03-05T18:49:58.252Z,28.50
2024-03-05T18:51:01.082Z,30.00
2024-03-05T18:52:03.766Z,31.50
2024-03-05T18:53:07.758Z,36.50
2024-03-05T18:54:11.217Z,35.00
2024-03-05T18:55:14.533Z,33.50
2024-03-05T18:56:18.214Z,31.40
2024-03-05T18:57:20.928Z,33.90
2024-03-05T18:58:23.987Z,36.40
2024-03-05T18:59:26.306Z,36.73
2024-03-05T19:00:29.033Z,31.50
2024-03-05T19:01:31.240Z,28.80
2024-03-05T19:02:34.629Z,29.50
2024-03-05T19:03:37.547Z,32.82
2024-03-05T19:04:40.792Z,34.91
2024-03-05T19:05:43.894Z,33.60
2024-03-05T19:06:46.441Z,30.10
2024-03-05T19:07:51.479Z,29.00
2024-03-05T19:08:54.432Z,23.50
2024-03-05T19:09:56.785Z,33.60
2024-03-05T19:10:59.662Z,33.20
2024-03-05T19:12:01.967Z,32.60
2024-03-05T19:13:04.473Z,33.40
2024-03-05T19:14:06.657Z,33.70
2024-03-05T19:15:10.087Z,38.89
2024-03-05T19:16:13.691Z,38.40
2024-03-05T19:17:15.870Z,38.20
2024-03-05T19:18:18.239Z,36.80
2024-03-05T19:19:20.701Z,35.40
2024-03-05T19:20:23.259Z,37.30
2024-03-05T19:21:26.262Z,39.50
2024-03-05T19:22:28.489Z,26.18
2024-03-05T19:23:31.017Z,30.22
2024-03-05T19:24:33.224Z,31.90
2024-03-05T19:25:37.236Z,31.30
2024-03-05T19:26:39.649Z,32.30
2024-03-05T19:27:43.453Z,33.78
2024-03-05T19:28:46.356Z,27.60
2024-03-05T19:29:48.993Z,20.18
2024-03-05T19:30:51.478Z,29.50
2024-03-05T19:31:53.668Z,33.20
2024-03-05T19:32:55.684Z,31.10
2024-03-05T19:33:58.351Z,34.33
2024-03-05T19:35:02.619Z,28.40
2024-03-05T19:36:05.831Z,32.00
2024-03-05T19:37:08.451Z,32.00
2024-03-05T19:38:10.699Z,29.40